sensor_id;sensor_type;location;lat;lon;timestamp;pressure;altitude;pressure_sealevel;temperature;humidity
70370;BME280;57790;51.356;-2.906;2023-05-23T00:02:18;102705.16;;;19.60;100.00
70370;BME280;57790;51.356;-2.906;2023-05-23T00:05:19;102711.91;;;19.56;100.00
70370;BME280;57790;51.356;-2.906;2023-05-23T00:08:19;102712.75;;;19.57;100.00
70370;BME280;57790;51.356;-2.906;2023-05-23T00:11:19;102713.38;;;19.51;100.00
70370;BME280;57790;51.356;-2.906;2023-05-23T00:14:25;102708.72;;;19.45;100.00
70370;BME280;57790;51.356;-2.906;2023-05-23T00:17:26;102716.13;;;19.35;100.00
70370;BME280;57790;51.356;-2.906;2023-05-23T00:20:27;102708.06;;;19.35;100.00
70370;BME280;57790;51.356;-2.906;2023-05-23T00:23:28;102720.53;;;19.19;100.00
70370;BME280;57790;51.356;-2.906;2023-05-23T00:26:29;102707.59;;;19.15;100.00
70370;BME280;57790;51.356;-2.906;2023-05-23T00:29:29;102707.28;;;19.10;100.00
70370;BME280;57790;51.356;-2.906;2023-05-23T00:32:30;102701.56;;;19.05;100.00
70370;BME280;57790;51.356;-2.906;2023-05-23T00:35:30;102702.44;;;18.97;100.00
70370;BME280;57790;51.356;-2.906;2023-05-23T00:38:31;102702.06;;;19.00;100.00
70370;BME280;57790;51.356;-2.906;2023-05-23T00:41:31;102705.09;;;18.89;100.00
70370;BME280;57790;51.356;-2.906;2023-05-23T00:44:32;102718.03;;;18.85;100.00
70370;BME280;57790;51.356;-2.906;2023-05-23T00:47:32;102714.88;;;18.82;100.00
70370;BME280;57790;51.356;-2.906;2023-05-23T00:50:33;102711.00;;;18.84;100.00
70370;BME280;57790;51.356;-2.906;2023-05-23T00:53:35;102716.53;;;18.83;100.00
70370;BME280;57790;51.356;-2.906;2023-05-23T00:56:37;102710.31;;;18.74;100.00
70370;BME280;57790;51.356;-2.906;2023-05-23T00:59:38;102711.16;;;18.75;100.00
70370;BME280;57790;51.356;-2.906;2023-05-23T01:02:42;102718.00;;;18.61;100.00
70370;BME280;57790;51.356;-2.906;2023-05-23T01:05:44;102715.78;;;18.48;100.00
70370;BME280;57790;51.356;-2.906;2023-05-23T01:08:44;102713.97;;;18.40;100.00
70370;BME280;57790;51.356;-2.906;2023-05-23T01:15:09;102704.19;;;18.31;100.00
70370;BME280;57790;51.356;-2.906;2023-05-23T01:18:18;102704.03;;;18.33;100.00
70370;BME280;57790;51.356;-2.906;2023-05-23T01:21:21;102715.59;;;18.33;100.00
70370;BME280;57790;51.356;-2.906;2023-05-23T01:27:52;102709.22;;;18.34;100.00
70370;BME280;57790;51.356;-2.906;2023-05-23T01:30:56;102724.50;;;18.26;100.00
70370;BME280;57790;51.356;-2.906;2023-05-23T01:33:56;102728.66;;;18.20;100.00
70370;BME280;57790;51.356;-2.906;2023-05-23T01:36:57;102736.53;;;18.13;100.00
70370;BME280;57790;51.356;-2.906;2023-05-23T01:39:57;102722.78;;;18.08;100.00
70370;BME280;57790;51.356;-2.906;2023-05-23T01:42:58;102725.25;;;18.02;100.00
70370;BME280;57790;51.356;-2.906;2023-05-23T01:45:59;102722.88;;;17.91;100.00
70370;BME280;57790;51.356;-2.906;2023-05-23T01:49:01;102721.69;;;17.85;100.00
70370;BME280;57790;51.356;-2.906;2023-05-23T01:52:03;102715.97;;;17.88;100.00
70370;BME280;57790;51.356;-2.906;2023-05-23T01:55:05;102723.00;;;17.81;100.00
70370;BME280;57790;51.356;-2.906;2023-05-23T01:58:11;102716.25;;;17.77;100.00
70370;BME280;57790;51.356;-2.906;2023-05-23T02:01:11;102718.31;;;17.83;100.00
70370;BME280;57790;51.356;-2.906;2023-05-23T02:04:12;102731.91;;;17.90;100.00
70370;BME280;57790;51.356;-2.906;2023-05-23T02:07:12;102737.78;;;17.85;100.00
70370;BME280;57790;51.356;-2.906;2023-05-23T02:10:13;102744.16;;;17.84;100.00
70370;BME280;57790;51.356;-2.906;2023-05-23T02:13:13;102753.53;;;17.80;100.00
70370;BME280;57790;51.356;-2.906;2023-05-23T02:16:13;102747.63;;;17.76;100.00
70370;BME280;57790;51.356;-2.906;2023-05-23T02:19:14;102750.78;;;17.72;100.00
70370;BME280;57790;51.356;-2.906;2023-05-23T02:22:15;102761.84;;;17.69;100.00
70370;BME280;57790;51.356;-2.906;2023-05-23T02:25:15;102766.44;;;17.59;100.00
70370;BME280;57790;51.356;-2.906;2023-05-23T02:28:16;102757.56;;;17.58;100.00
70370;BME280;57790;51.356;-2.906;2023-05-23T02:31:16;102761.59;;;17.62;100.00
70370;BME280;57790;51.356;-2.906;2023-05-23T02:34:17;102770.81;;;17.60;100.00
70370;BME280;57790;51.356;-2.906;2023-05-23T02:37:17;102769.09;;;17.50;100.00
70370;BME280;57790;51.356;-2.906;2023-05-23T02:40:17;102764.41;;;17.52;100.00
70370;BME280;57790;51.356;-2.906;2023-05-23T02:43:18;102766.25;;;17.52;100.00
70370;BME280;57790;51.356;-2.906;2023-05-23T02:46:19;102770.22;;;17.48;100.00
70370;BME280;57790;51.356;-2.906;2023-05-23T02:49:19;102770.19;;;17.40;100.00
70370;BME280;57790;51.356;-2.906;2023-05-23T02:52:20;102766.13;;;17.36;100.00
70370;BME280;57790;51.356;-2.906;2023-05-23T02:55:21;102764.91;;;17.30;100.00
70370;BME280;57790;51.356;-2.906;2023-05-23T02:58:21;102767.59;;;17.30;100.00
70370;BME280;57790;51.356;-2.906;2023-05-23T03:01:23;102767.91;;;17.27;100.00
70370;BME280;57790;51.356;-2.906;2023-05-23T03:04:24;102763.03;;;17.22;100.00
70370;BME280;57790;51.356;-2.906;2023-05-23T03:07:24;102761.28;;;17.13;100.00
70370;BME280;57790;51.356;-2.906;2023-05-23T03:10:26;102767.28;;;17.07;100.00
70370;BME280;57790;51.356;-2.906;2023-05-23T03:13:27;102765.19;;;17.01;100.00
70370;BME280;57790;51.356;-2.906;2023-05-23T03:16:27;102768.50;;;16.95;100.00
70370;BME280;57790;51.356;-2.906;2023-05-23T03:19:28;102764.00;;;16.95;100.00
70370;BME280;57790;51.356;-2.906;2023-05-23T03:22:28;102760.63;;;16.93;100.00
70370;BME280;57790;51.356;-2.906;2023-05-23T03:25:29;102766.28;;;16.90;100.00
70370;BME280;57790;51.356;-2.906;2023-05-23T03:28:32;102762.31;;;16.94;100.00
70370;BME280;57790;51.356;-2.906;2023-05-23T03:31:32;102762.75;;;16.90;100.00
70370;BME280;57790;51.356;-2.906;2023-05-23T03:34:33;102763.22;;;16.85;100.00
70370;BME280;57790;51.356;-2.906;2023-05-23T03:37:35;102763.13;;;16.77;100.00
70370;BME280;57790;51.356;-2.906;2023-05-23T03:40:36;102765.59;;;16.71;100.00
70370;BME280;57790;51.356;-2.906;2023-05-23T03:43:36;102759.09;;;16.73;100.00
70370;BME280;57790;51.356;-2.906;2023-05-23T03:46:37;102759.72;;;16.67;100.00
70370;BME280;57790;51.356;-2.906;2023-05-23T03:49:37;102766.59;;;16.70;100.00
70370;BME280;57790;51.356;-2.906;2023-05-23T03:52:37;102759.44;;;16.60;100.00
70370;BME280;57790;51.356;-2.906;2023-05-23T03:55:38;102761.53;;;16.66;100.00
70370;BME280;57790;51.356;-2.906;2023-05-23T03:58:38;102764.63;;;16.62;100.00
70370;BME280;57790;51.356;-2.906;2023-05-23T04:01:39;102766.63;;;16.60;100.00
70370;BME280;57790;51.356;-2.906;2023-05-23T04:04:39;102762.56;;;16.56;100.00
70370;BME280;57790;51.356;-2.906;2023-05-23T04:07:40;102763.19;;;16.50;100.00
70370;BME280;57790;51.356;-2.906;2023-05-23T04:10:41;102770.66;;;16.46;100.00
70370;BME280;57790;51.356;-2.906;2023-05-23T04:13:41;102774.94;;;16.39;100.00
70370;BME280;57790;51.356;-2.906;2023-05-23T04:16:41;102780.31;;;16.39;100.00
70370;BME280;57790;51.356;-2.906;2023-05-23T04:19:44;102780.34;;;16.29;100.00
70370;BME280;57790;51.356;-2.906;2023-05-23T04:22:44;102774.91;;;16.21;100.00
70370;BME280;57790;51.356;-2.906;2023-05-23T04:25:45;102779.97;;;16.24;100.00
70370;BME280;57790;51.356;-2.906;2023-05-23T04:28:45;102784.06;;;16.19;100.00
70370;BME280;57790;51.356;-2.906;2023-05-23T04:31:47;102778.31;;;16.14;100.00
70370;BME280;57790;51.356;-2.906;2023-05-23T04:34:48;102774.44;;;16.08;100.00
70370;BME280;57790;51.356;-2.906;2023-05-23T04:37:49;102782.19;;;16.01;100.00
70370;BME280;57790;51.356;-2.906;2023-05-23T04:40:50;102785.69;;;16.02;100.00
70370;BME280;57790;51.356;-2.906;2023-05-23T04:43:51;102783.56;;;16.05;100.00
70370;BME280;57790;51.356;-2.906;2023-05-23T04:46:53;102793.44;;;16.05;100.00
70370;BME280;57790;51.356;-2.906;2023-05-23T04:49:55;102794.88;;;15.99;100.00
70370;BME280;57790;51.356;-2.906;2023-05-23T04:52:56;102785.00;;;16.00;100.00
70370;BME280;57790;51.356;-2.906;2023-05-23T04:55:56;102793.19;;;15.98;100.00
70370;BME280;57790;51.356;-2.906;2023-05-23T04:58:57;102803.75;;;16.00;100.00
70370;BME280;57790;51.356;-2.906;2023-05-23T05:01:57;102794.19;;;15.97;100.00
70370;BME280;57790;51.356;-2.906;2023-05-23T05:04:58;102798.38;;;16.00;100.00
70370;BME280;57790;51.356;-2.906;2023-05-23T05:07:58;102802.22;;;15.97;100.00
70370;BME280;57790;51.356;-2.906;2023-05-23T05:10:58;102809.47;;;16.05;100.00
70370;BME280;57790;51.356;-2.906;2023-05-23T05:13:59;102807.94;;;16.02;100.00
70370;BME280;57790;51.356;-2.906;2023-05-23T05:16:59;102812.88;;;16.07;100.00
70370;BME280;57790;51.356;-2.906;2023-05-23T05:20:02;102817.50;;;16.05;100.00
70370;BME280;57790;51.356;-2.906;2023-05-23T05:23:07;102836.66;;;16.10;100.00
70370;BME280;57790;51.356;-2.906;2023-05-23T05:26:09;102826.50;;;16.14;100.00
70370;BME280;57790;51.356;-2.906;2023-05-23T05:29:13;102831.84;;;16.14;100.00
70370;BME280;57790;51.356;-2.906;2023-05-23T05:32:13;102818.47;;;16.14;100.00
70370;BME280;57790;51.356;-2.906;2023-05-23T05:35:14;102824.13;;;16.11;100.00
70370;BME280;57790;51.356;-2.906;2023-05-23T05:38:15;102820.06;;;16.06;100.00
70370;BME280;57790;51.356;-2.906;2023-05-23T05:41:15;102815.09;;;16.12;100.00
70370;BME280;57790;51.356;-2.906;2023-05-23T05:44:15;102819.22;;;16.06;100.00
70370;BME280;57790;51.356;-2.906;2023-05-23T05:47:16;102829.03;;;16.15;100.00
70370;BME280;57790;51.356;-2.906;2023-05-23T05:50:16;102828.56;;;16.20;100.00
70370;BME280;57790;51.356;-2.906;2023-05-23T05:53:18;102825.31;;;16.26;100.00
70370;BME280;57790;51.356;-2.906;2023-05-23T05:56:19;102831.47;;;16.36;100.00
70370;BME280;57790;51.356;-2.906;2023-05-23T05:59:19;102824.97;;;16.39;100.00
70370;BME280;57790;51.356;-2.906;2023-05-23T06:02:20;102817.94;;;16.38;100.00
70370;BME280;57790;51.356;-2.906;2023-05-23T06:05:20;102809.59;;;16.41;100.00
70370;BME280;57790;51.356;-2.906;2023-05-23T06:08:21;102817.78;;;16.39;100.00
70370;BME280;57790;51.356;-2.906;2023-05-23T06:11:21;102809.69;;;16.49;100.00
70370;BME280;57790;51.356;-2.906;2023-05-23T06:14:22;102807.41;;;16.54;100.00
70370;BME280;57790;51.356;-2.906;2023-05-23T06:17:22;102808.25;;;16.54;100.00
70370;BME280;57790;51.356;-2.906;2023-05-23T06:20:22;102807.31;;;16.46;100.00
70370;BME280;57790;51.356;-2.906;2023-05-23T06:23:23;102808.31;;;16.45;100.00
70370;BME280;57790;51.356;-2.906;2023-05-23T06:26:23;102812.81;;;16.44;100.00
70370;BME280;57790;51.356;-2.906;2023-05-23T06:29:23;102806.09;;;16.58;100.00
70370;BME280;57790;51.356;-2.906;2023-05-23T06:32:24;102818.19;;;16.62;100.00
70370;BME280;57790;51.356;-2.906;2023-05-23T06:35:24;102814.53;;;16.63;100.00
70370;BME280;57790;51.356;-2.906;2023-05-23T06:38:28;102810.59;;;16.67;100.00
70370;BME280;57790;51.356;-2.906;2023-05-23T06:41:28;102817.44;;;16.79;100.00
70370;BME280;57790;51.356;-2.906;2023-05-23T06:44:29;102819.94;;;16.81;100.00
70370;BME280;57790;51.356;-2.906;2023-05-23T06:47:29;102813.44;;;16.83;100.00
70370;BME280;57790;51.356;-2.906;2023-05-23T06:50:30;102816.34;;;16.90;100.00
70370;BME280;57790;51.356;-2.906;2023-05-23T06:53:30;102815.22;;;16.92;100.00
70370;BME280;57790;51.356;-2.906;2023-05-23T06:56:31;102814.22;;;16.93;100.00
70370;BME280;57790;51.356;-2.906;2023-05-23T06:59:31;102814.06;;;16.95;100.00
70370;BME280;57790;51.356;-2.906;2023-05-23T07:02:31;102808.22;;;17.00;100.00
70370;BME280;57790;51.356;-2.906;2023-05-23T07:05:32;102810.84;;;17.09;100.00
70370;BME280;57790;51.356;-2.906;2023-05-23T07:08:33;102812.22;;;17.13;100.00
70370;BME280;57790;51.356;-2.906;2023-05-23T07:11:34;102822.78;;;17.15;100.00
70370;BME280;57790;51.356;-2.906;2023-05-23T07:14:34;102815.09;;;17.20;100.00
70370;BME280;57790;51.356;-2.906;2023-05-23T07:17:37;102816.50;;;17.24;100.00
70370;BME280;57790;51.356;-2.906;2023-05-23T07:20:37;102824.91;;;17.29;100.00
70370;BME280;57790;51.356;-2.906;2023-05-23T07:23:39;102823.75;;;17.32;100.00
70370;BME280;57790;51.356;-2.906;2023-05-23T07:26:40;102833.03;;;17.37;100.00
70370;BME280;57790;51.356;-2.906;2023-05-23T07:29:40;102834.53;;;17.40;100.00
70370;BME280;57790;51.356;-2.906;2023-05-23T07:32:41;102834.38;;;17.41;100.00
70370;BME280;57790;51.356;-2.906;2023-05-23T07:35:43;102839.44;;;17.44;100.00
70370;BME280;57790;51.356;-2.906;2023-05-23T07:38:43;102844.47;;;17.47;100.00
70370;BME280;57790;51.356;-2.906;2023-05-23T07:41:43;102852.25;;;17.50;100.00
70370;BME280;57790;51.356;-2.906;2023-05-23T07:44:44;102857.88;;;17.47;100.00
70370;BME280;57790;51.356;-2.906;2023-05-23T07:47:44;102859.72;;;17.47;100.00
70370;BME280;57790;51.356;-2.906;2023-05-23T07:50:45;102854.59;;;17.53;100.00
70370;BME280;57790;51.356;-2.906;2023-05-23T07:53:46;102855.66;;;17.61;100.00
70370;BME280;57790;51.356;-2.906;2023-05-23T07:56:46;102855.19;;;17.65;100.00
70370;BME280;57790;51.356;-2.906;2023-05-23T07:59:46;102842.34;;;17.69;100.00
70370;BME280;57790;51.356;-2.906;2023-05-23T08:02:47;102850.38;;;17.69;100.00
70370;BME280;57790;51.356;-2.906;2023-05-23T08:05:47;102846.53;;;17.71;100.00
70370;BME280;57790;51.356;-2.906;2023-05-23T08:08:48;102848.06;;;17.74;100.00
70370;BME280;57790;51.356;-2.906;2023-05-23T08:11:48;102846.53;;;17.71;100.00
70370;BME280;57790;51.356;-2.906;2023-05-23T08:14:48;102847.53;;;17.70;100.00
70370;BME280;57790;51.356;-2.906;2023-05-23T08:17:49;102851.06;;;17.71;100.00
70370;BME280;57790;51.356;-2.906;2023-05-23T08:20:49;102842.34;;;17.69;100.00
70370;BME280;57790;51.356;-2.906;2023-05-23T08:23:50;102850.75;;;17.74;100.00
70370;BME280;57790;51.356;-2.906;2023-05-23T08:26:51;102849.41;;;17.78;100.00
70370;BME280;57790;51.356;-2.906;2023-05-23T08:29:51;102848.41;;;17.79;100.00
70370;BME280;57790;51.356;-2.906;2023-05-23T08:32:52;102833.47;;;17.76;100.00
70370;BME280;57790;51.356;-2.906;2023-05-23T08:35:53;102841.69;;;17.75;100.00
70370;BME280;57790;51.356;-2.906;2023-05-23T08:38:53;102834.31;;;17.77;100.00
70370;BME280;57790;51.356;-2.906;2023-05-23T08:41:54;102828.66;;;17.80;100.00
70370;BME280;57790;51.356;-2.906;2023-05-23T08:44:54;102827.19;;;17.86;100.00
70370;BME280;57790;51.356;-2.906;2023-05-23T08:47:56;102816.97;;;17.89;100.00
70370;BME280;57790;51.356;-2.906;2023-05-23T08:51:01;102806.72;;;17.93;100.00
70370;BME280;57790;51.356;-2.906;2023-05-23T08:54:03;102815.50;;;17.95;100.00
70370;BME280;57790;51.356;-2.906;2023-05-23T08:57:05;102812.94;;;17.93;100.00
70370;BME280;57790;51.356;-2.906;2023-05-23T09:00:06;102813.50;;;17.97;100.00
70370;BME280;57790;51.356;-2.906;2023-05-23T09:03:13;102807.44;;;17.95;100.00
70370;BME280;57790;51.356;-2.906;2023-05-23T09:06:14;102808.41;;;17.94;100.00
70370;BME280;57790;51.356;-2.906;2023-05-23T09:09:15;102815.94;;;17.90;100.00
70370;BME280;57790;51.356;-2.906;2023-05-23T09:12:16;102809.97;;;17.96;100.00
70370;BME280;57790;51.356;-2.906;2023-05-23T09:15:17;102816.53;;;18.02;100.00
70370;BME280;57790;51.356;-2.906;2023-05-23T09:18:17;102821.06;;;18.01;100.00
70370;BME280;57790;51.356;-2.906;2023-05-23T09:21:18;102816.75;;;18.08;100.00
70370;BME280;57790;51.356;-2.906;2023-05-23T09:24:18;102818.03;;;18.04;100.00
70370;BME280;57790;51.356;-2.906;2023-05-23T09:27:19;102826.41;;;18.01;100.00
70370;BME280;57790;51.356;-2.906;2023-05-23T09:30:19;102835.81;;;18.05;100.00
70370;BME280;57790;51.356;-2.906;2023-05-23T09:33:19;102830.63;;;18.04;100.00
70370;BME280;57790;51.356;-2.906;2023-05-23T09:36:20;102832.50;;;18.11;100.00
70370;BME280;57790;51.356;-2.906;2023-05-23T09:39:20;102830.69;;;18.12;100.00
70370;BME280;57790;51.356;-2.906;2023-05-23T09:42:21;102826.81;;;18.14;100.00
70370;BME280;57790;51.356;-2.906;2023-05-23T09:45:31;102825.66;;;18.17;100.00
70370;BME280;57790;51.356;-2.906;2023-05-23T09:48:32;102829.56;;;18.23;100.00
70370;BME280;57790;51.356;-2.906;2023-05-23T09:51:33;102835.94;;;18.30;100.00
70370;BME280;57790;51.356;-2.906;2023-05-23T09:54:33;102835.63;;;18.33;100.00
70370;BME280;57790;51.356;-2.906;2023-05-23T09:57:35;102823.91;;;18.42;100.00
70370;BME280;57790;51.356;-2.906;2023-05-23T10:00:36;102817.03;;;18.48;100.00
70370;BME280;57790;51.356;-2.906;2023-05-23T10:03:48;102826.78;;;18.49;100.00
70370;BME280;57790;51.356;-2.906;2023-05-23T10:06:52;102830.00;;;18.52;100.00
70370;BME280;57790;51.356;-2.906;2023-05-23T10:09:55;102827.16;;;18.62;100.00
70370;BME280;57790;51.356;-2.906;2023-05-23T10:13:02;102829.53;;;18.65;100.00
70370;BME280;57790;51.356;-2.906;2023-05-23T10:16:08;102826.38;;;18.69;100.00
70370;BME280;57790;51.356;-2.906;2023-05-23T10:19:32;102826.19;;;18.79;100.00
70370;BME280;57790;51.356;-2.906;2023-05-23T10:22:35;102828.06;;;18.87;100.00
70370;BME280;57790;51.356;-2.906;2023-05-23T10:25:36;102827.75;;;18.90;100.00
70370;BME280;57790;51.356;-2.906;2023-05-23T10:28:37;102823.56;;;18.95;100.00
70370;BME280;57790;51.356;-2.906;2023-05-23T10:31:39;102819.34;;;19.01;100.00
70370;BME280;57790;51.356;-2.906;2023-05-23T10:34:45;102818.84;;;19.06;100.00
70370;BME280;57790;51.356;-2.906;2023-05-23T10:41:22;102814.31;;;19.22;100.00
70370;BME280;57790;51.356;-2.906;2023-05-23T10:44:28;102823.22;;;19.31;100.00
70370;BME280;57790;51.356;-2.906;2023-05-23T10:47:29;102823.38;;;19.38;100.00
70370;BME280;57790;51.356;-2.906;2023-05-23T10:50:31;102823.72;;;19.43;100.00
70370;BME280;57790;51.356;-2.906;2023-05-23T10:53:40;102822.38;;;19.47;100.00
70370;BME280;57790;51.356;-2.906;2023-05-23T10:56:41;102827.09;;;19.53;100.00
70370;BME280;57790;51.356;-2.906;2023-05-23T10:59:44;102828.63;;;19.55;100.00
70370;BME280;57790;51.356;-2.906;2023-05-23T11:02:52;102827.09;;;19.61;100.00
70370;BME280;57790;51.356;-2.906;2023-05-23T11:05:54;102821.19;;;19.66;100.00
70370;BME280;57790;51.356;-2.906;2023-05-23T11:12:11;102829.09;;;19.75;100.00
70370;BME280;57790;51.356;-2.906;2023-05-23T11:21:21;102831.41;;;19.86;100.00
70370;BME280;57790;51.356;-2.906;2023-05-23T11:24:22;102826.03;;;19.86;100.00
70370;BME280;57790;51.356;-2.906;2023-05-23T11:27:34;102827.72;;;19.87;100.00
70370;BME280;57790;51.356;-2.906;2023-05-23T11:30:35;102828.03;;;19.92;100.00
70370;BME280;57790;51.356;-2.906;2023-05-23T11:33:38;102830.38;;;19.96;100.00
70370;BME280;57790;51.356;-2.906;2023-05-23T11:36:39;102822.81;;;19.99;100.00
70370;BME280;57790;51.356;-2.906;2023-05-23T11:39:40;102824.63;;;20.07;100.00
70370;BME280;57790;51.356;-2.906;2023-05-23T11:42:42;102834.03;;;20.11;100.00
70370;BME280;57790;51.356;-2.906;2023-05-23T11:45:43;102823.56;;;20.16;100.00
70370;BME280;57790;51.356;-2.906;2023-05-23T11:48:46;102831.13;;;20.20;100.00
70370;BME280;57790;51.356;-2.906;2023-05-23T11:51:46;102836.84;;;20.26;100.00
70370;BME280;57790;51.356;-2.906;2023-05-23T11:54:47;102832.59;;;20.31;100.00
70370;BME280;57790;51.356;-2.906;2023-05-23T11:57:48;102829.19;;;20.37;100.00
70370;BME280;57790;51.356;-2.906;2023-05-23T12:00:48;102836.25;;;20.38;100.00
70370;BME280;57790;51.356;-2.906;2023-05-23T12:03:50;102824.00;;;20.44;100.00
70370;BME280;57790;51.356;-2.906;2023-05-23T12:06:51;102831.34;;;20.50;100.00
70370;BME280;57790;51.356;-2.906;2023-05-23T12:09:54;102832.66;;;20.54;100.00
70370;BME280;57790;51.356;-2.906;2023-05-23T12:12:55;102831.16;;;20.60;100.00
70370;BME280;57790;51.356;-2.906;2023-05-23T12:15:57;102830.59;;;20.64;100.00
70370;BME280;57790;51.356;-2.906;2023-05-23T12:19:00;102829.06;;;20.70;100.00
70370;BME280;57790;51.356;-2.906;2023-05-23T12:22:05;102833.25;;;20.72;100.00
70370;BME280;57790;51.356;-2.906;2023-05-23T12:25:09;102820.91;;;20.78;100.00
70370;BME280;57790;51.356;-2.906;2023-05-23T12:28:10;102825.94;;;20.81;100.00
70370;BME280;57790;51.356;-2.906;2023-05-23T12:31:16;102822.72;;;20.86;100.00
70370;BME280;57790;51.356;-2.906;2023-05-23T12:34:19;102822.84;;;20.92;100.00
70370;BME280;57790;51.356;-2.906;2023-05-23T12:37:20;102823.50;;;20.94;100.00
70370;BME280;57790;51.356;-2.906;2023-05-23T12:40:21;102824.97;;;20.97;100.00
70370;BME280;57790;51.356;-2.906;2023-05-23T12:43:21;102819.25;;;21.00;100.00
70370;BME280;57790;51.356;-2.906;2023-05-23T12:46:26;102812.66;;;21.02;100.00
70370;BME280;57790;51.356;-2.906;2023-05-23T12:49:26;102826.44;;;21.07;100.00
70370;BME280;57790;51.356;-2.906;2023-05-23T12:52:26;102816.00;;;21.04;100.00
70370;BME280;57790;51.356;-2.906;2023-05-23T12:55:27;102812.94;;;21.07;100.00
70370;BME280;57790;51.356;-2.906;2023-05-23T12:58:27;102802.28;;;21.14;100.00
70370;BME280;57790;51.356;-2.906;2023-05-23T13:01:29;102804.41;;;21.19;100.00
70370;BME280;57790;51.356;-2.906;2023-05-23T13:04:30;102800.16;;;21.24;100.00
70370;BME280;57790;51.356;-2.906;2023-05-23T13:07:30;102794.44;;;21.27;100.00
70370;BME280;57790;51.356;-2.906;2023-05-23T13:10:31;102801.97;;;21.32;100.00
70370;BME280;57790;51.356;-2.906;2023-05-23T13:13:32;102813.06;;;21.37;100.00
70370;BME280;57790;51.356;-2.906;2023-05-23T13:16:32;102806.94;;;21.43;100.00
70370;BME280;57790;51.356;-2.906;2023-05-23T13:19:35;102798.47;;;21.46;100.00
70370;BME280;57790;51.356;-2.906;2023-05-23T13:22:36;102796.88;;;21.52;100.00
70370;BME280;57790;51.356;-2.906;2023-05-23T13:25:36;102801.91;;;21.55;100.00
70370;BME280;57790;51.356;-2.906;2023-05-23T13:28:37;102804.06;;;21.59;100.00
70370;BME280;57790;51.356;-2.906;2023-05-23T13:31:37;102809.94;;;21.63;100.00
70370;BME280;57790;51.356;-2.906;2023-05-23T13:34:38;102810.00;;;21.69;100.00
70370;BME280;57790;51.356;-2.906;2023-05-23T13:37:38;102803.91;;;21.76;100.00
70370;BME280;57790;51.356;-2.906;2023-05-23T13:40:39;102810.59;;;21.80;100.00
70370;BME280;57790;51.356;-2.906;2023-05-23T13:43:39;102798.22;;;21.85;100.00
70370;BME280;57790;51.356;-2.906;2023-05-23T13:46:40;102798.69;;;21.89;100.00
70370;BME280;57790;51.356;-2.906;2023-05-23T13:49:41;102799.41;;;21.97;100.00
70370;BME280;57790;51.356;-2.906;2023-05-23T13:52:41;102795.13;;;22.03;100.00
70370;BME280;57790;51.356;-2.906;2023-05-23T13:55:41;102797.47;;;22.06;100.00
70370;BME280;57790;51.356;-2.906;2023-05-23T13:58:44;102784.03;;;22.13;100.00
70370;BME280;57790;51.356;-2.906;2023-05-23T14:01:46;102781.81;;;22.16;100.00
70370;BME280;57790;51.356;-2.906;2023-05-23T14:04:49;102772.31;;;22.20;100.00
70370;BME280;57790;51.356;-2.906;2023-05-23T14:07:50;102768.84;;;22.26;100.00
70370;BME280;57790;51.356;-2.906;2023-05-23T14:10:50;102772.66;;;22.32;100.00
70370;BME280;57790;51.356;-2.906;2023-05-23T14:13:51;102762.94;;;22.38;100.00
70370;BME280;57790;51.356;-2.906;2023-05-23T14:16:51;102766.75;;;22.43;100.00
70370;BME280;57790;51.356;-2.906;2023-05-23T14:19:52;102770.56;;;22.49;100.00
70370;BME280;57790;51.356;-2.906;2023-05-23T14:22:52;102766.22;;;22.54;100.00
70370;BME280;57790;51.356;-2.906;2023-05-23T14:25:53;102759.25;;;22.60;100.00
70370;BME280;57790;51.356;-2.906;2023-05-23T14:28:53;102758.06;;;22.69;100.00
70370;BME280;57790;51.356;-2.906;2023-05-23T14:31:53;102755.63;;;22.74;100.00
70370;BME280;57790;51.356;-2.906;2023-05-23T14:34:54;102751.50;;;22.78;100.00
70370;BME280;57790;51.356;-2.906;2023-05-23T14:37:54;102745.34;;;22.84;100.00
70370;BME280;57790;51.356;-2.906;2023-05-23T14:40:55;102749.53;;;22.87;100.00
70370;BME280;57790;51.356;-2.906;2023-05-23T14:43:55;102756.22;;;22.91;100.00
70370;BME280;57790;51.356;-2.906;2023-05-23T14:46:56;102750.41;;;22.94;100.00
70370;BME280;57790;51.356;-2.906;2023-05-23T14:49:56;102753.84;;;23.03;100.00
70370;BME280;57790;51.356;-2.906;2023-05-23T14:52:57;102752.16;;;23.02;100.00
70370;BME280;57790;51.356;-2.906;2023-05-23T14:55:58;102749.69;;;23.07;100.00
70370;BME280;57790;51.356;-2.906;2023-05-23T14:58:59;102754.06;;;23.08;100.00
70370;BME280;57790;51.356;-2.906;2023-05-23T15:02:04;102765.97;;;23.13;100.00
70370;BME280;57790;51.356;-2.906;2023-05-23T15:05:07;102763.28;;;23.13;100.00
70370;BME280;57790;51.356;-2.906;2023-05-23T15:08:08;102754.31;;;23.13;100.00
70370;BME280;57790;51.356;-2.906;2023-05-23T15:11:09;102751.03;;;23.18;100.00
70370;BME280;57790;51.356;-2.906;2023-05-23T15:14:10;102753.97;;;23.23;100.00
70370;BME280;57790;51.356;-2.906;2023-05-23T15:17:10;102746.94;;;23.28;100.00
70370;BME280;57790;51.356;-2.906;2023-05-23T15:20:12;102751.97;;;23.31;100.00
70370;BME280;57790;51.356;-2.906;2023-05-23T15:23:12;102743.44;;;23.34;100.00
70370;BME280;57790;51.356;-2.906;2023-05-23T15:26:13;102745.75;;;23.37;100.00
70370;BME280;57790;51.356;-2.906;2023-05-23T15:29:13;102745.97;;;23.42;100.00
70370;BME280;57790;51.356;-2.906;2023-05-23T15:32:16;102742.91;;;23.45;100.00
70370;BME280;57790;51.356;-2.906;2023-05-23T15:35:16;102742.28;;;23.50;100.00
70370;BME280;57790;51.356;-2.906;2023-05-23T15:38:17;102739.38;;;23.52;100.00
70370;BME280;57790;51.356;-2.906;2023-05-23T15:41:17;102745.44;;;23.54;100.00
70370;BME280;57790;51.356;-2.906;2023-05-23T15:44:18;102743.03;;;23.59;100.00